Weather History for Chipley, FL

Change the Weather History Date:

Monday, July 15, 2013

  Actual Average (KMAI) Record (KMAI)
Temperature  
Mean Temperature 83 °F 82 °F  
Max Temperature 89 °F 92 °F 99 °F (2000)
Min Temperature 77 °F 72 °F 68 °F (2001)
Degree Days  
Heating Degree Days 0    
Month to date heating degree days  
Since 1 June heating degree days  
Since 1 July heating degree days  
Cooling Degree Days 18    
Month to date cooling degree days  
Year to date cooling degree days  
Since 1 June cooling degree days  
Growing Degree Days 33 (Base 50)    
Moisture  
Dew Point 71 °F    
Average Humidity 69    
Maximum Humidity 83    
Minimum Humidity 55    
Precipitation  
Precipitation 0.31 in 0.16 in 0.70 in (2004)
Month to date precipitation 2.69  
Year to date precipitation 30.48  
Sea Level Pressure  
Sea Level Pressure 30.06 in    
Wind  
Wind Speed 4 mph (ESE)    
Max Wind Speed 12 mph    
Max Gust Speed 17 mph    
Visibility 10 miles    
Events      
T = Trace of Precipitation, MM = Missing Value Source: NWS Daily Summary

Daily Weather History Graph

Daily Weather History Graph

Search for Another Location

Airport:

Trip Planner

Search our weather history database for the weather conditions in past years. The results will help you decide how hot, cold, wet, or windy it might be!

Date:

Astronomy

Jul. 15, 2013 Rise Set
Actual Time 5:49 AM CDT 7:46 PM CDT
Civil Twilight 5:22 AM CDT 8:13 PM CDT
Nautical Twilight 4:49 AM CDT 8:46 PM CDT
Astronomical Twilight 4:14 AM CDT 9:21 PM CDT
Moon 12:35 PM CDT (7/15) No Moon Set
Length of Visible Light 14h 50m
Length of Day
13h 56m
Waxing Crescent, 45% of the Moon is Illuminated
Jul 15
Waxing Crescent
Jul 15
First Quarter
Jul 22
Full
Jul 29
Last Quarter
Aug 6
New

Hourly Weather History & Observations

Time (CDT) Temp. Heat Index Dew Point Humidity Pressure Visibility Wind Dir Wind Speed Gust Speed Precip Events Conditions
12:15 AM 80.6 °F 83.9 °F 69.8 °F 70% 30.02 in 10.0 mi SSE 4.6 mph - N/A   Clear
12:35 AM 80.6 °F 84.6 °F 71.6 °F 74% 30.02 in 10.0 mi Calm Calm - N/A   Clear
12:55 AM 80.6 °F 84.6 °F 71.6 °F 74% 30.01 in 10.0 mi SSE 3.5 mph - N/A   Clear
1:15 AM 80.6 °F 84.6 °F 71.6 °F 74% 30.01 in 10.0 mi Calm Calm - N/A   Clear
1:35 AM 80.6 °F 84.6 °F 71.6 °F 74% 30.01 in 10.0 mi Calm Calm - N/A   Clear
1:55 AM 80.6 °F 84.6 °F 71.6 °F 74% 30.01 in 10.0 mi SSE 3.5 mph - N/A   Clear
2:15 AM 80.6 °F 83.9 °F 69.8 °F 70% 30.01 in 10.0 mi South 4.6 mph - N/A   Clear
2:35 AM 80.6 °F 83.9 °F 69.8 °F 70% 30.01 in 10.0 mi South 3.5 mph - N/A   Clear
2:55 AM 80.6 °F 83.9 °F 69.8 °F 70% 30.01 in 10.0 mi ESE 3.5 mph - N/A   Clear
3:15 AM 80.6 °F 83.9 °F 69.8 °F 70% 30.01 in 10.0 mi Calm Calm - N/A   Clear
3:35 AM 80.6 °F 83.9 °F 69.8 °F 70% 30.01 in 10.0 mi Calm Calm - N/A   Clear
3:55 AM 80.6 °F 84.6 °F 71.6 °F 74% 30.01 in 10.0 mi SE 4.6 mph - N/A   Clear
4:15 AM 80.6 °F 84.6 °F 71.6 °F 74% 30.02 in 10.0 mi SSE 4.6 mph - N/A   Clear
4:35 AM 80.6 °F 84.6 °F 71.6 °F 74% 30.02 in 10.0 mi Calm Calm - N/A   Clear
4:55 AM 80.6 °F 84.6 °F 71.6 °F 74% 30.02 in 10.0 mi SE 4.6 mph - N/A   Clear
5:15 AM 80.6 °F 84.6 °F 71.6 °F 74% 30.02 in 10.0 mi SE 5.8 mph - N/A   Clear
5:35 AM 80.6 °F 84.6 °F 71.6 °F 74% 30.02 in 10.0 mi SE 5.8 mph - N/A   Clear
5:55 AM 80.6 °F 84.6 °F 71.6 °F 74% 30.03 in 10.0 mi SSE 4.6 mph - N/A   Clear
6:15 AM 80.6 °F 84.6 °F 71.6 °F 74% 30.04 in 10.0 mi SSE 5.8 mph - N/A   Clear
6:35 AM 80.6 °F 84.6 °F 71.6 °F 74% 30.04 in 10.0 mi SSE 4.6 mph - N/A   Clear
6:55 AM 80.6 °F 84.6 °F 71.6 °F 74% 30.04 in 10.0 mi SE 5.8 mph - N/A   Clear
7:15 AM 80.6 °F 84.6 °F 71.6 °F 74% 30.05 in 10.0 mi SSE 4.6 mph - N/A   Clear
7:35 AM 80.6 °F 84.6 °F 71.6 °F 74% 30.06 in 10.0 mi SE 5.8 mph - N/A   Clear
7:55 AM 82.4 °F 87.2 °F 71.6 °F 70% 30.06 in 10.0 mi East 3.5 mph - N/A   Clear
8:15 AM 84.2 °F 89.6 °F 71.6 °F 66% 30.07 in 10.0 mi South 4.6 mph - N/A   Clear
8:35 AM 86.0 °F 91.8 °F 71.6 °F 62% 30.07 in 10.0 mi SSE 8.1 mph - N/A   Partly Cloudy
8:55 AM 84.2 °F 89.6 °F 71.6 °F 66% 30.08 in 10.0 mi SE 6.9 mph 16.1 mph N/A   Partly Cloudy
9:15 AM 84.2 °F 89.6 °F 71.6 °F 66% 30.08 in 10.0 mi SSE 5.8 mph - N/A   Partly Cloudy
9:35 AM 84.2 °F 89.6 °F 71.6 °F 66% 30.09 in 10.0 mi SSE 8.1 mph - N/A   Partly Cloudy
9:55 AM 87.8 °F 95.6 °F 73.4 °F 62% 30.09 in 10.0 mi ENE 8.1 mph - N/A   Scattered Clouds
10:15 AM 87.8 °F 93.8 °F 71.6 °F 58% 30.09 in 10.0 mi SE 9.2 mph - N/A   Mostly Cloudy
10:35 AM 86.0 °F 91.8 °F 71.6 °F 62% 30.09 in 10.0 mi East 11.5 mph - N/A   Mostly Cloudy
10:55 AM 86.0 °F 91.8 °F 71.6 °F 62% 30.09 in 10.0 mi East 8.1 mph 16.1 mph N/A   Mostly Cloudy
11:15 AM 87.8 °F 93.8 °F 71.6 °F 58% 30.09 in 10.0 mi SE 4.6 mph - N/A   Clear
11:35 AM 87.8 °F 93.8 °F 71.6 °F 58% 30.09 in 10.0 mi East 5.8 mph - N/A   Scattered Clouds
11:55 AM 87.8 °F 92.6 °F 69.8 °F 55% 30.09 in 10.0 mi SSE 5.8 mph - N/A   Mostly Cloudy
12:15 PM 87.8 °F 93.8 °F 71.6 °F 58% 30.09 in 10.0 mi SSE 6.9 mph - N/A   Mostly Cloudy
12:35 PM 87.8 °F 92.6 °F 69.8 °F 55% 30.09 in 10.0 mi ENE 6.9 mph - N/A   Mostly Cloudy
12:55 PM 87.8 °F 93.8 °F 71.6 °F 58% 30.08 in 10.0 mi ENE 9.2 mph 16.1 mph N/A   Mostly Cloudy
1:15 PM 89.6 °F 96.2 °F 71.6 °F 55% 30.08 in 10.0 mi SE 8.1 mph - N/A   Scattered Clouds
1:35 PM 87.8 °F 93.8 °F 71.6 °F 58% 30.07 in 10.0 mi East 5.8 mph - N/A   Mostly Cloudy
1:55 PM 87.8 °F 93.8 °F 71.6 °F 58% 30.07 in 10.0 mi East 9.2 mph - N/A   Mostly Cloudy
2:15 PM 87.8 °F 95.6 °F 73.4 °F 62% 30.07 in 8.0 mi NE 6.9 mph - N/A   Mostly Cloudy
2:35 PM 84.2 °F 90.9 °F 73.4 °F 70% 30.06 in 10.0 mi Calm Calm - 0.01 in   Overcast
2:55 PM 86.0 °F 91.8 °F 71.6 °F 62% 30.06 in 10.0 mi East 4.6 mph - 0.01 in   Mostly Cloudy
3:15 PM 86.0 °F 91.8 °F 71.6 °F 62% 30.06 in 10.0 mi ENE 4.6 mph - N/A   Mostly Cloudy
3:35 PM 86.0 °F 91.8 °F 71.6 °F 62% 30.06 in 10.0 mi SE 6.9 mph - N/A   Scattered Clouds
3:55 PM 86.0 °F 91.8 °F 71.6 °F 62% 30.06 in 10.0 mi ESE 4.6 mph - N/A   Mostly Cloudy
4:15 PM 86.0 °F 91.8 °F 71.6 °F 62% 30.06 in 10.0 mi SE 5.8 mph - N/A   Mostly Cloudy
4:35 PM 86.0 °F 91.8 °F 71.6 °F 62% 30.06 in 10.0 mi SE 3.5 mph - N/A   Mostly Cloudy
4:55 PM 82.4 °F 86.3 °F 69.8 °F 66% 30.07 in 10.0 mi ENE 11.5 mph 17.3 mph 0.02 in   Mostly Cloudy
5:15 PM 80.6 °F 83.9 °F 69.8 °F 70% 30.07 in 10.0 mi East 5.8 mph - N/A   Scattered Clouds
5:35 PM 82.4 °F 86.3 °F 69.8 °F 66% 30.07 in 10.0 mi ENE 8.1 mph - N/A   Clear
5:55 PM 82.4 °F 86.3 °F 69.8 °F 66% 30.07 in 10.0 mi East 4.6 mph - N/A   Clear
6:15 PM 82.4 °F 87.2 °F 71.6 °F 70% 30.08 in 10.0 mi Calm Calm - N/A   Partly Cloudy
6:35 PM 78.8 °F - 71.6 °F 78% 30.07 in 7.0 mi SSE 4.6 mph - 0.01 in   Mostly Cloudy
6:55 PM 80.6 °F 83.9 °F 69.8 °F 70% 30.07 in 10.0 mi East 5.8 mph - 0.01 in   Mostly Cloudy
7:15 PM 80.6 °F 83.9 °F 69.8 °F 70% 30.08 in 10.0 mi ESE 3.5 mph - N/A   Partly Cloudy
7:35 PM 80.6 °F 83.9 °F 69.8 °F 70% 30.07 in 10.0 mi Calm Calm - N/A   Clear
7:55 PM 80.6 °F 84.6 °F 71.6 °F 74% 30.08 in 5.0 mi NNE 8.1 mph - 0.04 in   Scattered Clouds
8:15 PM 78.8 °F - 71.6 °F 78% 30.08 in 10.0 mi NE 3.5 mph - N/A   Mostly Cloudy
8:35 PM 80.6 °F 84.6 °F 71.6 °F 74% 30.09 in 10.0 mi East 6.9 mph - N/A   Clear
8:55 PM 80.6 °F 84.6 °F 71.6 °F 74% 30.10 in 10.0 mi East 5.8 mph - N/A   Clear
9:15 PM 80.6 °F 84.6 °F 71.6 °F 74% 30.10 in 10.0 mi ENE 6.9 mph - N/A   Clear
9:35 PM 80.6 °F 84.6 °F 71.6 °F 74% 30.11 in 8.0 mi NE 10.4 mph 16.1 mph 0.04 in   Mostly Cloudy
9:55 PM 77.0 °F - 71.6 °F 83% 30.11 in 10.0 mi NE 4.6 mph - 0.23 in   Mostly Cloudy
10:15 PM 78.8 °F - 71.6 °F 78% 30.10 in 10.0 mi ENE 3.5 mph - N/A   Partly Cloudy
10:35 PM 78.8 °F - 73.4 °F 83% 30.10 in 10.0 mi East 3.5 mph - N/A   Clear
10:55 PM 80.6 °F 85.4 °F 73.4 °F 79% 30.09 in 10.0 mi East 3.5 mph - N/A   Partly Cloudy
11:15 PM 80.6 °F 85.4 °F 73.4 °F 79% 30.09 in 10.0 mi East 3.5 mph - N/A   Partly Cloudy
11:35 PM 80.6 °F 85.4 °F 73.4 °F 79% 30.09 in 10.0 mi East 3.5 mph - N/A   Mostly Cloudy
11:55 PM 80.6 °F 85.4 °F 73.4 °F 79% 30.09 in 10.0 mi East 4.6 mph - N/A   Scattered Clouds